createdAt,value
2019-02-10T00:01:50.732Z,29.13
2019-02-10T00:04:21.082Z,40.37
2019-02-10T00:06:51.418Z,23.07
2019-02-10T00:09:21.843Z,30.07
2019-02-10T00:11:52.180Z,25.30
2019-02-10T00:14:23.899Z,34.53
2019-02-10T00:16:54.157Z,24.43
2019-02-10T00:19:24.436Z,29.17
2019-02-10T00:21:54.904Z,26.40
2019-02-10T00:24:25.179Z,22.20
2019-02-10T00:26:55.606Z,26.80
2019-02-10T00:29:25.839Z,25.23
2019-02-10T00:31:56.168Z,13.27
2019-02-10T00:34:26.471Z,31.80
2019-02-10T00:36:56.787Z,27.40
2019-02-10T00:39:27.100Z,30.43
2019-02-10T00:41:57.457Z,31.97
2019-02-10T00:44:27.844Z,26.10
2019-02-10T00:46:58.180Z,24.33
2019-02-10T00:49:28.488Z,19.87
2019-02-10T00:51:58.753Z,28.17
2019-02-10T00:54:29.086Z,29.60
2019-02-10T00:56:59.448Z,28.60
2019-02-10T00:59:29.726Z,29.47
2019-02-10T01:02:00.019Z,30.83
2019-02-10T01:04:30.271Z,27.63
2019-02-10T01:07:00.696Z,32.60
2019-02-10T01:09:30.950Z,36.27
2019-02-10T01:12:01.315Z,33.80
2019-02-10T01:14:31.955Z,35.43
2019-02-10T01:17:02.299Z,30.73
2019-02-10T01:19:32.637Z,31.40
2019-02-10T01:22:03.001Z,25.53
2019-02-10T01:24:33.640Z,27.80
2019-02-10T01:27:04.259Z,32.77
2019-02-10T01:29:35.971Z,27.60
2019-02-10T01:32:06.487Z,27.73
2019-02-10T01:34:37.181Z,27.33
2019-02-10T01:37:07.529Z,33.77
2019-02-10T01:39:37.899Z,27.27
2019-02-10T01:42:08.376Z,27.53
2019-02-10T01:44:38.806Z,36.10
2019-02-10T01:47:09.193Z,26.20
2019-02-10T01:49:39.519Z,32.57
2019-02-10T01:52:09.934Z,40.83
2019-02-10T01:54:40.341Z,34.07
2019-02-10T01:57:10.732Z,31.80
2019-02-10T01:59:41.129Z,29.70
2019-02-10T02:02:13.012Z,41.90
2019-02-10T02:04:43.340Z,32.73
2019-02-10T02:07:15.170Z,25.23
2019-02-10T02:09:45.500Z,23.33
2019-02-10T02:12:15.952Z,28.93
2019-02-10T02:14:46.314Z,26.90
2019-02-10T02:17:16.752Z,28.63
2019-02-10T02:19:47.248Z,29.87
2019-02-10T02:22:17.580Z,24.70
2019-02-10T02:24:47.989Z,31.00
2019-02-10T02:27:18.382Z,25.83
2019-02-10T02:29:48.880Z,25.67
2019-02-10T02:32:19.520Z,40.27
2019-02-10T02:34:50.658Z,33.30
2019-02-10T02:37:21.020Z,34.87
2019-02-10T02:39:51.373Z,30.47
2019-02-10T02:42:22.796Z,30.67
2019-02-10T02:44:53.164Z,29.90
2019-02-10T02:47:23.622Z,28.10
2019-02-10T02:49:53.951Z,29.93
2019-02-10T02:52:24.279Z,28.30
2019-02-10T02:54:54.701Z,33.43
2019-02-10T02:57:25.037Z,19.87
2019-02-10T02:59:55.362Z,34.07
2019-02-10T03:02:25.781Z,31.20
2019-02-10T03:04:56.320Z,34.80
2019-02-10T03:07:26.637Z,33.13
2019-02-10T03:09:57.076Z,32.33
2019-02-10T03:12:27.483Z,32.07
2019-02-10T03:15:00.105Z,32.80
2019-02-10T03:17:30.560Z,43.17
2019-02-10T03:20:00.972Z,31.70
2019-02-10T03:22:31.252Z,30.07
2019-02-10T03:25:01.673Z,29.63
2019-02-10T03:27:31.964Z,35.87
2019-02-10T03:30:02.390Z,28.67
2019-02-10T03:32:36.110Z,26.37
2019-02-10T03:35:06.872Z,38.90
2019-02-10T03:37:38.394Z,32.47
2019-02-10T03:40:09.037Z,31.53
2019-02-10T03:42:39.453Z,33.27
2019-02-10T03:45:09.904Z,38.13
2019-02-10T03:47:40.222Z,39.53
2019-02-10T03:50:10.795Z,31.57
2019-02-10T03:52:41.227Z,37.97
2019-02-10T03:55:11.594Z,44.40
2019-02-10T03:57:41.964Z,31.70
2019-02-10T04:00:12.347Z,32.97
2019-02-10T04:02:42.890Z,29.53
2019-02-10T04:05:13.355Z,34.67
2019-02-10T04:07:43.749Z,27.97
2019-02-10T04:10:14.136Z,24.57
2019-02-10T04:12:44.514Z,21.77
2019-02-10T04:15:14.872Z,23.90
2019-02-10T04:17:45.128Z,28.27
2019-02-10T04:20:15.803Z,30.33
2019-02-10T04:22:46.245Z,30.80
2019-02-10T04:25:23.702Z,25.43
2019-02-10T04:27:54.112Z,34.63
2019-02-10T04:30:24.464Z,26.63
2019-02-10T04:32:54.865Z,33.80
2019-02-10T04:35:25.714Z,31.23
2019-02-10T04:37:56.159Z,24.80
2019-02-10T04:40:26.530Z,26.83
2019-02-10T04:42:57.146Z,23.13
2019-02-10T04:45:27.640Z,24.53
2019-02-10T04:47:57.936Z,21.47
2019-02-10T04:50:28.286Z,26.63
2019-02-10T04:52:58.630Z,22.37
2019-02-10T04:55:29.089Z,19.60
2019-02-10T04:57:59.545Z,13.33
2019-02-10T05:00:29.947Z,19.33
2019-02-10T05:03:00.288Z,15.37
2019-02-10T05:05:30.644Z,15.17
2019-02-10T05:08:00.943Z,18.83
2019-02-10T05:10:31.350Z,17.73
2019-02-10T05:13:01.761Z,18.57
2019-02-10T05:15:32.165Z,14.90
2019-02-10T05:18:02.629Z,18.23
2019-02-10T05:20:32.988Z,13.43
2019-02-10T05:23:03.370Z,14.97
2019-02-10T05:25:33.753Z,17.47
2019-02-10T05:28:04.134Z,17.63
2019-02-10T05:30:34.555Z,21.87
2019-02-10T05:33:05.373Z,16.63
2019-02-10T05:35:35.819Z,13.30
2019-02-10T05:38:06.782Z,19.17
2019-02-10T05:40:37.243Z,14.37
2019-02-10T05:43:10.147Z,20.77
2019-02-10T05:45:40.584Z,21.03
2019-02-10T05:48:11.241Z,18.30
2019-02-10T05:50:42.027Z,17.20
2019-02-10T05:53:12.394Z,23.53
2019-02-10T05:55:42.841Z,17.27
2019-02-10T05:58:13.643Z,17.93
2019-02-10T06:00:44.161Z,20.40
2019-02-10T06:03:14.550Z,25.10
2019-02-10T06:05:44.859Z,19.57
2019-02-10T06:08:15.394Z,21.10
2019-02-10T06:10:47.585Z,13.00
2019-02-10T06:13:18.012Z,19.97
2019-02-10T06:15:48.372Z,14.57
2019-02-10T06:18:18.865Z,18.33
2019-02-10T06:20:49.289Z,13.10
2019-02-10T06:23:19.654Z,14.67
2019-02-10T06:25:50.883Z,20.90
2019-02-10T06:28:22.863Z,15.83
2019-02-10T06:30:53.279Z,14.90
2019-02-10T06:33:23.675Z,15.53
2019-02-10T06:35:54.109Z,15.10
2019-02-10T06:38:24.525Z,14.30
2019-02-10T06:40:54.998Z,15.27
2019-02-10T06:43:25.415Z,20.13
2019-02-10T06:45:55.763Z,13.53
2019-02-10T06:48:26.038Z,22.30
2019-02-10T06:50:56.826Z,15.73
2019-02-10T06:53:27.262Z,9.70
2019-02-10T06:55:57.630Z,14.00
2019-02-10T06:58:28.153Z,13.30
2019-02-10T07:01:13.110Z,15.07
2019-02-10T07:04:15.128Z,19.30
2019-02-10T07:06:45.582Z,12.40
2019-02-10T07:09:15.950Z,19.07
2019-02-10T07:11:46.559Z,14.60
2019-02-10T07:14:24.724Z,8.97
2019-02-10T07:17:42.364Z,13.37
2019-02-10T07:20:40.984Z,14.03
2019-02-10T07:23:58.577Z,11.10
2019-02-10T07:26:53.083Z,16.73
2019-02-10T07:30:15.113Z,14.77
2019-02-10T07:32:49.136Z,14.57
2019-02-10T07:35:56.127Z,17.63
2019-02-10T07:39:19.858Z,15.13
2019-02-10T07:42:21.972Z,13.43
2019-02-10T07:45:37.953Z,12.23
2019-02-10T07:48:24.197Z,12.17
2019-02-10T07:51:37.687Z,13.20
2019-02-10T07:54:42.149Z,12.30
2019-02-10T07:57:43.547Z,11.57
2019-02-10T08:00:51.524Z,15.23
2019-02-10T08:04:14.774Z,15.30
2019-02-10T08:07:09.267Z,15.70
2019-02-10T08:09:48.232Z,15.10
2019-02-10T08:13:10.979Z,14.60
2019-02-10T08:16:00.558Z,18.30
2019-02-10T08:19:02.327Z,13.07
2019-02-10T08:22:12.313Z,9.87
2019-02-10T08:25:12.290Z,18.73
2019-02-10T08:28:19.173Z,14.43
2019-02-10T08:31:33.569Z,15.87
2019-02-10T08:34:23.628Z,12.50
2019-02-10T08:37:18.792Z,15.23
2019-02-10T08:40:34.515Z,17.80
2019-02-10T08:44:01.379Z,15.07
2019-02-10T08:47:14.713Z,10.27
2019-02-10T08:50:38.529Z,14.03
2019-02-10T08:53:16.147Z,13.57
2019-02-10T08:55:47.142Z,15.77
2019-02-10T08:58:17.543Z,9.97
2019-02-10T09:00:48.167Z,10.23
2019-02-10T09:03:19.839Z,10.17
2019-02-10T09:05:50.681Z,10.17
2019-02-10T09:08:21.275Z,12.43
2019-02-10T09:10:51.624Z,12.33
2019-02-10T09:13:22.137Z,13.30
2019-02-10T09:15:52.481Z,13.83
2019-02-10T09:18:22.900Z,8.90
2019-02-10T09:20:53.253Z,10.27
2019-02-10T09:23:23.575Z,10.87
2019-02-10T09:25:53.972Z,8.67
2019-02-10T09:28:24.392Z,8.37
2019-02-10T09:30:54.771Z,9.93
2019-02-10T09:33:26.785Z,8.83
2019-02-10T09:35:57.321Z,6.87
2019-02-10T09:38:27.714Z,10.30
2019-02-10T09:40:59.444Z,6.93
2019-02-10T09:43:30.623Z,7.17
2019-02-10T09:46:01.018Z,6.87
2019-02-10T09:48:31.521Z,9.80
2019-02-10T09:51:01.964Z,10.13
2019-02-10T09:53:32.606Z,12.17
2019-02-10T09:56:03.082Z,7.80
2019-02-10T09:58:33.498Z,7.43
2019-02-10T10:01:03.965Z,7.73
2019-02-10T10:03:34.332Z,4.43
2019-02-10T10:06:04.698Z,7.67
2019-02-10T10:08:35.095Z,6.73
2019-02-10T10:11:05.564Z,8.57
2019-02-10T10:13:35.978Z,6.43
2019-02-10T10:16:06.417Z,8.43
2019-02-10T10:18:36.890Z,7.93
2019-02-10T10:21:07.290Z,9.10
2019-02-10T10:23:37.674Z,7.83
2019-02-10T10:26:08.008Z,5.60
2019-02-10T10:28:38.500Z,5.97
2019-02-10T10:31:08.926Z,8.00
2019-02-10T10:33:39.387Z,9.43
2019-02-10T10:36:09.788Z,6.73
2019-02-10T10:38:40.120Z,3.63
2019-02-10T10:41:10.533Z,5.90
2019-02-10T10:43:40.950Z,5.47
2019-02-10T10:46:11.835Z,2.77
2019-02-10T10:48:42.288Z,5.60
2019-02-10T10:51:12.779Z,3.13
2019-02-10T10:53:43.217Z,4.77
2019-02-10T10:56:13.850Z,6.37
2019-02-10T10:58:44.463Z,8.33
2019-02-10T11:01:15.000Z,5.40
2019-02-10T11:03:50.256Z,5.03
2019-02-10T11:06:20.740Z,3.90
2019-02-10T11:08:52.692Z,4.27
2019-02-10T11:11:23.032Z,6.43
2019-02-10T11:13:53.508Z,7.17
2019-02-10T11:16:24.008Z,4.67
2019-02-10T11:18:55.664Z,4.13
2019-02-10T11:21:26.140Z,7.30
2019-02-10T11:23:56.519Z,5.00
2019-02-10T11:26:27.032Z,8.83
2019-02-10T11:28:57.409Z,6.23
2019-02-10T11:31:29.439Z,6.33
2019-02-10T11:33:59.774Z,9.93
2019-02-10T11:36:31.675Z,6.63
2019-02-10T11:39:02.131Z,6.27
2019-02-10T11:41:37.059Z,6.47
2019-02-10T11:44:07.634Z,7.70
2019-02-10T11:46:39.528Z,5.63
2019-02-10T11:49:09.941Z,5.43
2019-02-10T11:51:40.346Z,4.40
2019-02-10T11:54:11.006Z,7.43
2019-02-10T11:56:41.517Z,7.33
2019-02-10T11:59:11.926Z,5.47
2019-02-10T12:01:42.512Z,6.47
2019-02-10T12:04:13.887Z,9.83
2019-02-10T12:06:44.254Z,6.47
2019-02-10T12:09:21.217Z,4.80
2019-02-10T12:12:00.632Z,4.70
2019-02-10T12:14:32.625Z,4.73
2019-02-10T12:17:03.043Z,9.83
2019-02-10T12:19:33.740Z,7.83
2019-02-10T12:22:06.637Z,5.40
2019-02-10T12:24:37.072Z,7.30
2019-02-10T12:27:07.500Z,9.30
2019-02-10T12:29:37.880Z,6.40
2019-02-10T12:32:10.917Z,5.40
2019-02-10T12:34:41.448Z,5.43
2019-02-10T12:37:13.403Z,7.43
2019-02-10T12:39:43.754Z,5.37
2019-02-10T12:42:14.233Z,7.83
2019-02-10T12:44:44.613Z,5.00
2019-02-10T12:47:16.107Z,6.67
2019-02-10T12:49:46.523Z,3.37
2019-02-10T12:52:17.012Z,2.80
2019-02-10T12:54:47.459Z,7.03
2019-02-10T12:57:17.994Z,3.00
2019-02-10T12:59:48.529Z,3.70
2019-02-10T13:02:19.002Z,5.37
2019-02-10T13:04:49.475Z,4.17
2019-02-10T13:07:19.834Z,6.73
2019-02-10T13:09:50.354Z,4.33
2019-02-10T13:12:21.849Z,5.07
2019-02-10T13:14:52.249Z,2.83
2019-02-10T13:17:22.673Z,4.20
2019-02-10T13:19:53.129Z,4.33
2019-02-10T13:22:23.573Z,2.27
2019-02-10T13:24:55.517Z,5.67
2019-02-10T13:27:25.888Z,3.33
2019-02-10T13:29:56.264Z,4.23
2019-02-10T13:32:26.620Z,6.93
2019-02-10T13:34:58.600Z,3.47
2019-02-10T13:37:28.968Z,2.47
2019-02-10T13:40:01.218Z,3.60
2019-02-10T13:42:31.864Z,4.57
2019-02-10T13:45:02.369Z,3.57
2019-02-10T13:47:35.761Z,4.63
2019-02-10T13:50:06.925Z,3.30
2019-02-10T13:52:38.905Z,5.70
2019-02-10T13:55:10.352Z,4.43
2019-02-10T13:57:42.028Z,3.13
2019-02-10T14:00:15.016Z,3.87
2019-02-10T14:02:45.814Z,3.93
2019-02-10T14:05:17.857Z,2.70
2019-02-10T14:07:50.800Z,3.03
2019-02-10T14:10:25.601Z,4.47
2019-02-10T14:13:04.063Z,3.57
2019-02-10T14:16:11.174Z,5.37
2019-02-10T14:18:43.248Z,9.97
2019-02-10T14:21:13.577Z,6.60
2019-02-10T14:23:47.009Z,8.20
2019-02-10T14:26:17.472Z,6.33
2019-02-10T14:28:52.194Z,6.63
2019-02-10T14:31:24.878Z,5.47
2019-02-10T14:33:59.256Z,5.17
2019-02-10T14:36:36.957Z,4.57
2019-02-10T14:39:09.608Z,4.30
2019-02-10T14:41:40.215Z,5.43
2019-02-10T14:44:13.748Z,5.00
2019-02-10T14:46:44.371Z,6.03
2019-02-10T14:49:19.538Z,5.27
2019-02-10T14:51:50.079Z,4.33
2019-02-10T14:54:22.169Z,7.23
2019-02-10T14:56:58.309Z,7.33
2019-02-10T14:59:31.486Z,5.07
2019-02-10T15:02:07.036Z,3.63
2019-02-10T15:04:47.986Z,4.77
2019-02-10T15:07:25.147Z,3.50
2019-02-10T15:09:53.644Z,5.27
2019-02-10T15:12:23.984Z,5.83
2019-02-10T15:15:12.865Z,3.40
2019-02-10T15:17:44.845Z,4.43
2019-02-10T15:20:23.370Z,3.17
2019-02-10T15:22:59.921Z,1.27
2019-02-10T15:25:36.105Z,6.37
2019-02-10T15:28:06.480Z,3.50
2019-02-10T15:30:36.881Z,4.27
2019-02-10T15:33:07.242Z,4.33
2019-02-10T15:35:40.452Z,5.23
2019-02-10T15:38:11.061Z,10.77
2019-02-10T15:40:41.283Z,7.67
2019-02-10T15:43:11.816Z,4.37
2019-02-10T15:45:42.268Z,11.20
2019-02-10T15:48:12.554Z,8.20
2019-02-10T15:50:42.917Z,10.30
2019-02-10T15:53:13.325Z,4.07
2019-02-10T15:55:43.649Z,2.60
2019-02-10T15:58:14.348Z,1.90
2019-02-10T16:00:44.685Z,1.03
2019-02-10T16:03:16.051Z,1.37
2019-02-10T16:05:46.359Z,3.60
2019-02-10T16:08:16.774Z,0.70
2019-02-10T16:10:47.127Z,0.90
2019-02-10T16:13:17.453Z,3.90
2019-02-10T16:15:47.807Z,27.57
2019-02-10T16:18:18.172Z,3.60
2019-02-10T16:20:48.443Z,3.07
2019-02-10T16:23:18.819Z,1.80
2019-02-10T16:25:49.151Z,2.23
2019-02-10T16:28:20.765Z,3.70
2019-02-10T16:30:51.038Z,2.47
2019-02-10T16:33:23.592Z,5.13
2019-02-10T16:35:54.010Z,3.07
2019-02-10T16:38:24.476Z,3.23
2019-02-10T16:40:54.912Z,2.50
2019-02-10T16:43:25.401Z,2.33
2019-02-10T16:45:55.901Z,2.23
2019-02-10T16:48:26.320Z,1.10
2019-02-10T16:50:57.028Z,1.97
2019-02-10T16:53:27.395Z,1.60
2019-02-10T16:55:59.368Z,2.10
2019-02-10T16:58:29.857Z,1.23
2019-02-10T17:01:00.196Z,1.60
2019-02-10T17:03:31.879Z,0.40
2019-02-10T17:06:04.295Z,1.80
2019-02-10T17:08:35.839Z,3.00
2019-02-10T17:11:14.088Z,0.53
2019-02-10T17:13:41.134Z,2.60
2019-02-10T17:16:11.587Z,2.23
2019-02-10T17:18:42.155Z,1.50
2019-02-10T17:21:13.814Z,3.87
2019-02-10T17:23:44.344Z,1.77
2019-02-10T17:26:14.749Z,12.83
2019-02-10T17:28:45.144Z,27.07
2019-02-10T17:31:15.952Z,12.47
2019-02-10T17:33:46.432Z,4.60
2019-02-10T17:36:16.880Z,4.17
2019-02-10T17:38:47.437Z,2.13
2019-02-10T17:41:41.788Z,3.27
2019-02-10T17:44:12.744Z,5.97
2019-02-10T17:46:44.164Z,2.80
2019-02-10T17:49:14.714Z,5.33
2019-02-10T17:51:45.098Z,7.07
2019-02-10T17:54:15.552Z,8.60
2019-02-10T17:56:46.038Z,6.00
2019-02-10T17:59:16.375Z,8.30
2019-02-10T18:01:46.810Z,10.30
2019-02-10T18:04:17.232Z,11.13
2019-02-10T18:06:47.606Z,15.30
2019-02-10T18:09:18.063Z,10.27
2019-02-10T18:11:48.459Z,12.93
2019-02-10T18:14:47.389Z,9.37
2019-02-10T18:17:46.402Z,12.40
2019-02-10T18:20:42.305Z,12.50
2019-02-10T18:23:31.879Z,9.43
2019-02-10T18:26:24.273Z,8.83
2019-02-10T18:29:12.571Z,13.57
2019-02-10T18:31:50.027Z,6.60
2019-02-10T18:34:33.539Z,15.20
2019-02-10T18:37:25.662Z,10.73
2019-02-10T18:40:41.629Z,5.47
2019-02-10T18:43:32.483Z,11.03
2019-02-10T18:46:20.494Z,11.87
2019-02-10T18:49:19.556Z,34.13
2019-02-10T18:51:58.545Z,19.63
2019-02-10T18:54:42.328Z,6.17
2019-02-10T18:57:31.414Z,5.70
2019-02-10T19:00:30.113Z,4.10
2019-02-10T19:03:06.370Z,4.50
2019-02-10T19:05:56.777Z,8.63
2019-02-10T19:08:48.352Z,10.80
2019-02-10T19:11:31.867Z,7.70
2019-02-10T19:14:20.090Z,15.03
2019-02-10T19:17:15.270Z,16.47
2019-02-10T19:20:04.587Z,14.60
2019-02-10T19:22:52.749Z,10.83
2019-02-10T19:25:30.782Z,14.33
2019-02-10T19:28:25.958Z,14.00
2019-02-10T19:31:07.987Z,15.10
2019-02-10T19:34:03.282Z,18.40
2019-02-10T19:36:58.756Z,16.93
2019-02-10T19:39:48.188Z,22.10
2019-02-10T19:42:35.171Z,19.03
2019-02-10T19:45:32.336Z,11.70
2019-02-10T19:48:31.633Z,9.93
2019-02-10T19:51:20.229Z,14.50
2019-02-10T19:54:14.523Z,8.43
2019-02-10T19:57:20.768Z,16.00
2019-02-10T20:00:02.991Z,12.37
2019-02-10T20:02:52.119Z,21.07
2019-02-10T20:05:32.324Z,19.13
2019-02-10T20:08:14.076Z,23.60
2019-02-10T20:10:57.591Z,21.90
2019-02-10T20:13:34.408Z,30.20
2019-02-10T20:16:13.006Z,32.77
2019-02-10T20:19:05.219Z,28.13
2019-02-10T20:21:48.031Z,34.57
2019-02-10T20:24:29.739Z,38.77
2019-02-10T20:27:19.201Z,26.40
2019-02-10T20:30:12.686Z,41.40
2019-02-10T20:33:08.031Z,35.93
2019-02-10T20:35:57.417Z,28.27
2019-02-10T20:38:40.010Z,34.30
2019-02-10T20:41:43.294Z,27.17
2019-02-10T20:44:32.867Z,28.17
2019-02-10T20:47:26.356Z,32.03
2019-02-10T20:50:18.740Z,32.10
2019-02-10T20:53:20.250Z,29.63
2019-02-10T20:56:12.440Z,23.90
2019-02-10T20:59:11.117Z,30.40
2019-02-10T21:02:18.670Z,33.13
2019-02-10T21:05:04.305Z,34.20
2019-02-10T21:07:49.469Z,28.37
2019-02-10T21:10:29.341Z,24.77
2019-02-10T21:13:18.710Z,28.13
2019-02-10T21:16:14.091Z,37.70
2019-02-10T21:19:03.386Z,30.27
2019-02-10T21:21:52.629Z,24.50
2019-02-10T21:24:41.011Z,22.43
2019-02-10T21:27:36.500Z,24.47
2019-02-10T21:30:32.898Z,25.10
2019-02-10T21:36:19.972Z,18.57
2019-02-10T21:39:05.919Z,21.33
2019-02-10T21:41:59.205Z,28.63
2019-02-10T21:44:36.028Z,16.27
2019-02-10T21:47:13.692Z,19.40
2019-02-10T21:49:44.115Z,17.40
2019-02-10T21:52:14.488Z,19.23
2019-02-10T21:54:46.610Z,14.13
2019-02-10T21:57:16.994Z,15.77
2019-02-10T21:59:47.377Z,14.27
2019-02-10T22:02:17.804Z,14.87
2019-02-10T22:04:48.120Z,12.10
2019-02-10T22:07:18.897Z,12.93
2019-02-10T22:09:49.130Z,16.80
2019-02-10T22:12:19.460Z,18.67
2019-02-10T22:14:49.746Z,16.53
2019-02-10T22:17:20.148Z,26.90
2019-02-10T22:19:50.399Z,19.73
2019-02-10T22:22:20.678Z,25.67
2019-02-10T22:24:50.963Z,25.97
2019-02-10T22:27:21.350Z,21.03
2019-02-10T22:29:51.577Z,19.40
2019-02-10T22:32:21.948Z,20.57
2019-02-10T22:34:52.313Z,26.10
2019-02-10T22:37:22.716Z,19.77
2019-02-10T22:39:53.078Z,21.17
2019-02-10T22:42:23.494Z,23.80
2019-02-10T22:44:53.816Z,17.47
2019-02-10T22:47:24.256Z,23.33
2019-02-10T22:49:54.628Z,20.77
2019-02-10T22:52:26.571Z,26.93
2019-02-10T22:54:57.603Z,25.43
2019-02-10T22:57:28.346Z,36.17
2019-02-10T22:59:59.720Z,30.87
2019-02-10T23:02:30.224Z,21.53
2019-02-10T23:05:00.537Z,18.07
2019-02-10T23:07:30.936Z,14.87
2019-02-10T23:10:01.377Z,19.40
2019-02-10T23:12:31.813Z,25.43
2019-02-10T23:15:03.408Z,21.83
2019-02-10T23:17:33.931Z,23.43
2019-02-10T23:20:04.438Z,17.10
2019-02-10T23:22:34.762Z,17.73
2019-02-10T23:25:05.214Z,25.10
2019-02-10T23:27:35.588Z,33.27
2019-02-10T23:30:06.093Z,29.00
2019-02-10T23:32:36.521Z,23.50
2019-02-10T23:35:08.156Z,18.90
2019-02-10T23:37:38.532Z,23.47
2019-02-10T23:40:10.589Z,20.50
2019-02-10T23:42:40.862Z,29.13
2019-02-10T23:45:11.140Z,32.07
2019-02-10T23:47:44.511Z,24.70
2019-02-10T23:50:14.805Z,19.47
2019-02-10T23:52:45.093Z,20.97
2019-02-10T23:55:15.385Z,24.60
2019-02-10T23:57:45.694Z,24.67
